Terminal Aerodrome Forecast
Issued by NWS

Home | Current Version | Previous Version | Text Only | Print | Product List | Glossary On
Versions: 1 2 3 4 5 6 7 8 9 10 11 12 13 14 15 16 17
000
FTAK31 PANC 201740
TAFAHO
TAF
PAHO 201740Z 2018/2118 07007KT P6SM -RA SCT025 OVC050
      TEMPO 2018/2022 5SM -RA BR OVC025
     FM210100 02010G16KT 5SM -RA BKN018 OVC025
     FM211200 04008KT P6SM VCSH SCT015 OVC030=

USA.gov is the U.S. government's official web portal to all federal, state and local government web resources and services.